createdAt,value
2022-12-04T00:01:36.677Z,46.81
2022-12-04T00:06:38.444Z,46.85
2022-12-04T00:11:40.381Z,46.89
2022-12-04T00:16:42.189Z,46.68
2022-12-04T00:21:45.392Z,46.72
2022-12-04T00:26:47.220Z,46.92
2022-12-04T00:31:50.559Z,47.07
2022-12-04T00:36:52.359Z,46.98
2022-12-04T00:41:53.987Z,46.77
2022-12-04T00:46:55.782Z,46.68
2022-12-04T00:51:57.534Z,47.01
2022-12-04T00:56:59.310Z,47.03
2022-12-04T01:02:01.103Z,47.07
2022-12-04T01:07:05.264Z,46.99
2022-12-04T01:12:07.419Z,47.07
2022-12-04T01:17:09.135Z,47.07
2022-12-04T01:22:10.776Z,47.01
2022-12-04T01:27:12.506Z,46.90
2022-12-04T01:32:14.409Z,46.95
2022-12-04T01:37:16.520Z,46.94
2022-12-04T01:42:18.296Z,47.17
2022-12-04T01:47:20.013Z,47.37
2022-12-04T01:52:23.644Z,47.39
2022-12-04T01:57:31.059Z,47.44
2022-12-04T02:02:36.763Z,47.61
2022-12-04T02:07:40.330Z,47.69
2022-12-04T02:12:51.977Z,47.70
2022-12-04T02:18:18.200Z,47.73
2022-12-04T02:24:08.147Z,47.87
2022-12-04T02:29:19.068Z,47.88
2022-12-04T02:34:29.561Z,47.90
2022-12-04T02:39:41.438Z,47.91
2022-12-04T02:44:49.513Z,47.94
2022-12-04T02:49:58.856Z,47.98
2022-12-04T02:55:08.808Z,48.15
2022-12-04T03:00:11.517Z,48.02
2022-12-04T03:05:18.490Z,48.06
2022-12-04T03:10:27.385Z,47.98
2022-12-04T03:15:44.961Z,47.98
2022-12-04T03:20:50.194Z,48.01
2022-12-04T03:26:22.581Z,47.89
2022-12-04T03:31:47.954Z,47.93
2022-12-04T03:36:56.154Z,47.88
2022-12-04T03:42:11.502Z,47.88
2022-12-04T03:47:29.449Z,47.91
2022-12-04T03:53:13.366Z,47.89
2022-12-04T03:58:21.304Z,47.92
2022-12-04T04:03:28.584Z,47.83
2022-12-04T04:08:35.825Z,47.93
2022-12-04T04:14:09.401Z,47.93
2022-12-04T04:19:33.379Z,47.90
2022-12-04T04:24:47.178Z,47.89
2022-12-04T04:29:52.501Z,47.88
2022-12-04T04:35:05.385Z,47.80
2022-12-04T04:40:23.931Z,47.95
2022-12-04T04:45:34.645Z,46.94
2022-12-04T04:50:39.046Z,46.81
2022-12-04T04:55:41.114Z,46.94
2022-12-04T05:01:04.070Z,46.76
2022-12-04T05:06:06.711Z,46.96
2022-12-04T05:11:12.788Z,46.82
2022-12-04T05:16:15.845Z,46.66
2022-12-04T05:21:17.663Z,46.61
2022-12-04T05:26:19.435Z,46.65
2022-12-04T05:31:21.214Z,46.69
2022-12-04T05:36:22.996Z,46.74
2022-12-04T05:41:24.778Z,46.68
2022-12-04T05:46:28.143Z,46.81
2022-12-04T05:51:29.897Z,46.89
2022-12-04T05:56:31.503Z,46.87
2022-12-04T06:01:33.287Z,46.79
2022-12-04T06:06:35.489Z,46.85
2022-12-04T06:11:39.415Z,46.45
2022-12-04T06:16:44.227Z,46.42
2022-12-04T06:21:48.251Z,46.47
2022-12-04T06:27:25.611Z,46.61
2022-12-04T06:32:16.504Z,47.20
2022-12-04T06:37:24.746Z,47.26
2022-12-04T06:42:26.555Z,47.28
2022-12-04T06:47:28.265Z,47.21
2022-12-04T06:52:32.159Z,47.09
2022-12-04T06:57:34.032Z,47.15
2022-12-04T07:02:36.390Z,47.20
2022-12-04T07:07:38.249Z,47.15
2022-12-04T07:12:40.191Z,47.22
2022-12-04T07:17:41.963Z,47.26
2022-12-04T07:22:43.724Z,47.36
2022-12-04T07:27:45.411Z,47.41
2022-12-04T07:32:47.190Z,47.44
2022-12-04T07:37:49.071Z,47.53
2022-12-04T07:42:50.937Z,47.61
2022-12-04T07:47:52.831Z,47.69
2022-12-04T07:52:54.524Z,47.82
2022-12-04T07:57:56.220Z,47.81
2022-12-04T08:02:58.020Z,47.80
2022-12-04T08:07:59.940Z,47.70
2022-12-04T08:13:01.882Z,47.45
2022-12-04T08:18:03.803Z,48.26
2022-12-04T08:23:05.683Z,48.43
2022-12-04T08:28:07.971Z,48.21
2022-12-04T08:33:09.849Z,48.31
2022-12-04T08:38:11.659Z,48.32
2022-12-04T08:43:13.505Z,48.10
2022-12-04T08:48:15.281Z,48.00
2022-12-04T08:53:17.572Z,48.11
2022-12-04T08:58:20.373Z,47.83
2022-12-04T09:03:27.685Z,47.91
2022-12-04T09:08:33.658Z,48.13
2022-12-04T09:13:36.298Z,48.01
2022-12-04T09:18:38.942Z,47.77
2022-12-04T09:23:41.754Z,47.58
2022-12-04T09:28:43.532Z,47.53
2022-12-04T09:33:45.379Z,47.19
2022-12-04T09:38:52.600Z,47.05
2022-12-04T09:44:24.123Z,47.01
2022-12-04T09:49:33.338Z,46.48
2022-12-04T09:54:42.995Z,46.52
2022-12-04T09:59:46.311Z,46.43
2022-12-04T10:04:48.089Z,46.25
2022-12-04T10:10:08.644Z,46.34
2022-12-04T10:15:41.007Z,46.37
2022-12-04T10:21:31.323Z,46.10
2022-12-04T10:26:44.257Z,45.96
2022-12-04T10:31:48.263Z,45.61
2022-12-04T10:36:53.448Z,45.43
2022-12-04T10:42:02.313Z,45.89
2022-12-04T10:47:06.291Z,45.91
2022-12-04T10:52:12.721Z,45.66
2022-12-04T10:57:15.299Z,45.73
2022-12-04T11:02:24.684Z,45.85
2022-12-04T11:07:29.041Z,46.44
2022-12-04T11:12:31.590Z,46.20
2022-12-04T11:17:33.654Z,45.96
2022-12-04T11:22:48.966Z,45.78
2022-12-04T11:28:02.623Z,45.71
2022-12-04T11:33:15.357Z,45.63
2022-12-04T11:38:18.792Z,45.43
2022-12-04T11:43:22.026Z,45.34
2022-12-04T11:48:24.602Z,45.30
2022-12-04T11:53:47.551Z,45.15
2022-12-04T11:59:10.738Z,45.12
2022-12-04T12:04:47.017Z,45.18
2022-12-04T12:09:59.551Z,44.79
2022-12-04T12:15:19.142Z,44.67
2022-12-04T12:20:26.563Z,44.59
2022-12-04T12:25:51.679Z,44.65
2022-12-04T12:31:13.243Z,44.79
2022-12-04T12:36:15.622Z,44.57
2022-12-04T12:41:42.474Z,44.52
2022-12-04T12:46:54.482Z,44.80
2022-12-04T12:52:12.766Z,45.00
2022-12-04T12:57:30.999Z,45.11
2022-12-04T13:02:45.425Z,45.13
2022-12-04T13:08:09.097Z,45.32
2022-12-04T13:13:18.809Z,45.32
2022-12-04T13:18:37.427Z,45.26
2022-12-04T13:23:49.743Z,45.40
2022-12-04T13:29:00.739Z,45.39
2022-12-04T13:34:32.313Z,45.50
2022-12-04T13:39:52.314Z,45.63
2022-12-04T13:45:11.605Z,45.67
2022-12-04T13:50:19.221Z,45.79
2022-12-04T13:55:27.892Z,45.78
2022-12-04T14:00:33.321Z,46.01
2022-12-04T14:05:43.463Z,46.02
2022-12-04T14:10:57.834Z,46.06
2022-12-04T14:16:06.408Z,46.14
2022-12-04T14:21:08.290Z,46.12
2022-12-04T14:26:37.301Z,46.13
2022-12-04T14:31:45.015Z,46.28
2022-12-04T14:36:49.346Z,46.35
2022-12-04T14:41:52.449Z,46.49
2022-12-04T14:47:00.000Z,46.72
2022-12-04T14:52:24.065Z,47.06
2022-12-04T14:57:41.413Z,47.27
2022-12-04T15:02:45.258Z,47.37
2022-12-04T15:07:52.319Z,47.51
2022-12-04T15:12:54.950Z,47.56
2022-12-04T15:18:01.074Z,47.62
2022-12-04T15:23:03.817Z,47.66
2022-12-04T15:28:13.616Z,47.68
2022-12-04T15:33:21.744Z,47.67
2022-12-04T15:38:24.412Z,47.66
2022-12-04T15:43:33.660Z,47.76
2022-12-04T15:48:35.402Z,47.84
2022-12-04T15:53:40.102Z,47.89
2022-12-04T15:58:54.667Z,48.08
2022-12-04T16:03:56.804Z,48.00
2022-12-04T16:09:12.171Z,47.88
2022-12-04T16:14:18.715Z,47.98
2022-12-04T16:19:35.576Z,48.02
2022-12-04T16:24:37.547Z,48.07
2022-12-04T16:29:39.505Z,48.12
2022-12-04T16:34:41.610Z,47.96
2022-12-04T16:39:44.095Z,48.12
2022-12-04T16:44:46.594Z,48.08
2022-12-04T16:49:50.629Z,47.98
2022-12-04T16:54:52.388Z,48.07
2022-12-04T16:59:54.385Z,48.11
2022-12-04T17:04:58.004Z,48.31
2022-12-04T17:10:00.102Z,48.29
2022-12-04T17:15:01.866Z,48.11
2022-12-04T17:20:04.365Z,48.02
2022-12-04T17:25:07.651Z,48.25
2022-12-04T17:30:11.155Z,48.16
2022-12-04T17:35:13.494Z,48.30
2022-12-04T17:40:15.465Z,48.31
2022-12-04T17:45:17.342Z,48.34
2022-12-04T17:50:19.080Z,48.21
2022-12-04T17:55:21.123Z,48.36
2022-12-04T18:00:23.721Z,48.38
2022-12-04T18:05:25.616Z,48.17
2022-12-04T18:10:27.371Z,48.17
2022-12-04T18:15:29.133Z,48.01
2022-12-04T18:20:31.008Z,48.22
2022-12-04T18:25:32.889Z,48.11
2022-12-04T18:30:35.489Z,48.11
2022-12-04T18:35:37.383Z,48.09
2022-12-04T18:40:39.148Z,47.99
2022-12-04T18:45:44.958Z,47.89
2022-12-04T18:50:46.896Z,47.82
2022-12-04T18:55:48.775Z,47.63
2022-12-04T19:00:51.927Z,47.76
2022-12-04T19:05:53.804Z,47.89
2022-12-04T19:10:56.155Z,48.04
2022-12-04T19:15:59.732Z,48.28
2022-12-04T19:21:05.759Z,48.11
2022-12-04T19:26:07.634Z,48.02
2022-12-04T19:31:20.739Z,48.02
2022-12-04T19:36:23.188Z,48.00
2022-12-04T19:41:30.373Z,48.09
2022-12-04T19:46:36.612Z,47.86
2022-12-04T19:51:39.868Z,47.56
2022-12-04T19:56:42.802Z,47.63
2022-12-04T20:01:44.692Z,47.73
2022-12-04T20:06:46.921Z,47.81
2022-12-04T20:11:49.228Z,47.99
2022-12-04T20:16:51.861Z,48.05
2022-12-04T20:21:59.098Z,48.18
2022-12-04T20:27:03.267Z,48.21
2022-12-04T20:32:05.151Z,47.93
2022-12-04T20:37:07.022Z,47.88
2022-12-04T20:42:08.899Z,47.64
2022-12-04T20:47:10.648Z,47.48
2022-12-04T20:52:12.458Z,47.52
2022-12-04T20:57:14.187Z,47.71
2022-12-04T21:02:15.999Z,47.73
2022-12-04T21:07:17.793Z,47.89
2022-12-04T21:12:42.977Z,47.89
2022-12-04T21:17:45.208Z,48.05
2022-12-04T21:22:46.933Z,47.99
2022-12-04T21:27:48.761Z,47.92
2022-12-04T21:32:50.636Z,47.87
2022-12-04T21:37:52.526Z,47.58
2022-12-04T21:42:54.289Z,47.51
2022-12-04T21:47:56.085Z,47.52
2022-12-04T21:52:57.798Z,47.62
2022-12-04T21:57:59.583Z,47.77
2022-12-04T22:03:01.459Z,47.95
2022-12-04T22:08:03.849Z,48.08
2022-12-04T22:13:13.458Z,48.12
2022-12-04T22:18:15.248Z,48.27
2022-12-04T22:23:17.008Z,48.19
2022-12-04T22:28:19.400Z,48.45
2022-12-04T22:33:21.183Z,48.45
2022-12-04T22:38:22.950Z,48.30
2022-12-04T22:43:24.836Z,48.25
2022-12-04T22:48:32.039Z,48.45
2022-12-04T22:53:43.569Z,48.67
2022-12-04T22:58:45.730Z,48.71
2022-12-04T23:03:48.431Z,48.53
2022-12-04T23:08:58.325Z,48.46
2022-12-04T23:14:02.493Z,48.60
2022-12-04T23:19:06.050Z,48.84
2022-12-04T23:24:08.029Z,48.93
2022-12-04T23:29:29.715Z,48.96
2022-12-04T23:36:24.916Z,52.74
2022-12-04T23:41:29.736Z,49.16
2022-12-04T23:46:32.726Z,49.19
2022-12-04T23:51:34.853Z,49.01
2022-12-04T23:56:36.833Z,49.07
